createdAt,value
2022-11-15T00:00:56.059Z,11.55
2022-11-15T00:03:25.028Z,11.57
2022-11-15T00:05:51.834Z,11.57
2022-11-15T00:08:18.369Z,11.58
2022-11-15T00:10:55.587Z,11.54
2022-11-15T00:13:22.184Z,11.59
2022-11-15T00:15:48.679Z,11.57
2022-11-15T00:18:15.960Z,11.57
2022-11-15T00:20:42.699Z,11.56
2022-11-15T00:23:09.652Z,11.56
2022-11-15T00:25:36.624Z,11.56
2022-11-15T00:28:03.728Z,11.57
2022-11-15T00:30:30.924Z,11.58
2022-11-15T00:32:57.555Z,11.57
2022-11-15T00:35:23.973Z,11.58
2022-11-15T00:37:50.456Z,11.59
2022-11-15T00:40:17.060Z,11.59
2022-11-15T00:42:43.653Z,11.60
2022-11-15T00:45:10.757Z,11.59
2022-11-15T00:47:37.284Z,11.59
2022-11-15T00:50:04.435Z,11.59
2022-11-15T00:52:30.830Z,11.59
2022-11-15T00:54:57.313Z,11.61
2022-11-15T00:57:23.773Z,11.61
2022-11-15T00:59:50.253Z,11.63
2022-11-15T01:02:16.679Z,11.64
2022-11-15T01:04:43.180Z,11.65
2022-11-15T01:07:09.796Z,11.67
2022-11-15T01:09:36.250Z,11.68
2022-11-15T01:12:02.706Z,11.70
2022-11-15T01:14:29.191Z,11.71
2022-11-15T01:16:55.702Z,11.72
2022-11-15T01:19:22.186Z,11.76
2022-11-15T01:21:52.453Z,11.78
2022-11-15T01:24:18.874Z,11.83
2022-11-15T01:26:45.441Z,11.86
2022-11-15T01:29:12.002Z,11.89
2022-11-15T01:31:39.080Z,11.92
2022-11-15T01:34:05.613Z,11.94
2022-11-15T01:36:34.278Z,11.97
2022-11-15T01:39:00.891Z,11.98
2022-11-15T01:41:31.765Z,12.01
2022-11-15T01:44:37.240Z,12.01
2022-11-15T01:47:09.865Z,12.07
2022-11-15T01:49:39.985Z,12.10
2022-11-15T01:52:11.538Z,12.14
2022-11-15T01:54:38.058Z,12.17
2022-11-15T01:57:10.329Z,12.18
2022-11-15T01:59:41.475Z,12.21
2022-11-15T02:02:08.343Z,12.24
2022-11-15T02:04:42.480Z,12.25
2022-11-15T02:07:12.083Z,12.30
2022-11-15T02:09:39.400Z,12.32
2022-11-15T02:12:09.298Z,12.32
2022-11-15T02:14:38.483Z,12.34
2022-11-15T02:17:08.088Z,12.37
2022-11-15T02:19:41.608Z,12.39
2022-11-15T02:22:29.857Z,12.38
2022-11-15T02:25:05.400Z,12.45
2022-11-15T02:28:17.246Z,12.43
2022-11-15T02:31:11.669Z,12.48
2022-11-15T02:33:54.190Z,12.53
2022-11-15T02:36:45.101Z,12.54
2022-11-15T02:39:16.202Z,12.58
2022-11-15T02:42:04.413Z,12.56
2022-11-15T02:44:40.474Z,12.59
2022-11-15T02:47:14.662Z,12.60
2022-11-15T02:49:46.153Z,12.64
2022-11-15T02:52:20.769Z,12.64
2022-11-15T02:54:58.748Z,12.66
2022-11-15T02:57:52.311Z,12.64
2022-11-15T03:00:19.906Z,12.70
2022-11-15T03:03:17.409Z,12.71
2022-11-15T03:05:57.869Z,12.72
2022-11-15T03:08:38.974Z,12.73
2022-11-15T03:11:12.497Z,12.74
2022-11-15T03:13:58.442Z,12.75
2022-11-15T03:16:27.862Z,12.80
2022-11-15T03:19:01.606Z,12.80
2022-11-15T03:21:30.889Z,12.84
2022-11-15T03:24:01.304Z,12.87
2022-11-15T03:26:30.421Z,12.89
2022-11-15T03:29:04.088Z,12.92
2022-11-15T03:31:50.304Z,12.93
2022-11-15T03:34:43.916Z,12.93
2022-11-15T03:37:14.274Z,13.00
2022-11-15T03:39:40.927Z,13.01
2022-11-15T03:42:35.218Z,12.99
2022-11-15T03:45:04.967Z,13.05
2022-11-15T03:47:35.523Z,13.07
2022-11-15T03:50:23.602Z,13.06
2022-11-15T03:52:51.144Z,13.12
2022-11-15T03:55:22.335Z,13.11
2022-11-15T03:57:52.727Z,13.14
2022-11-15T04:00:19.389Z,13.15
2022-11-15T04:05:20.956Z,13.18
2022-11-15T04:07:47.441Z,13.18
2022-11-15T04:10:14.547Z,13.20
2022-11-15T04:12:44.368Z,13.21
2022-11-15T04:15:16.801Z,13.21
2022-11-15T04:18:09.590Z,13.21
2022-11-15T04:20:54.965Z,13.28
2022-11-15T04:23:42.000Z,13.30
2022-11-15T04:26:09.106Z,13.33
2022-11-15T04:28:35.661Z,13.35
2022-11-15T04:31:02.182Z,13.37
2022-11-15T04:33:28.981Z,13.38
2022-11-15T04:36:14.306Z,13.40
2022-11-15T04:38:40.866Z,13.44
2022-11-15T04:41:07.356Z,13.48
2022-11-15T04:43:34.180Z,13.49
2022-11-15T04:46:00.983Z,13.51
2022-11-15T04:48:27.594Z,13.54
2022-11-15T04:50:54.151Z,13.57
2022-11-15T04:53:20.735Z,13.60
2022-11-15T04:55:47.892Z,13.62
2022-11-15T04:58:14.732Z,13.63
2022-11-15T05:00:41.322Z,13.65
2022-11-15T05:03:28.312Z,13.66
2022-11-15T05:05:55.183Z,13.70
2022-11-15T05:08:21.742Z,13.71
2022-11-15T05:10:48.703Z,13.74
2022-11-15T05:13:15.263Z,13.75
2022-11-15T05:15:41.845Z,13.75
2022-11-15T05:18:08.283Z,13.78
2022-11-15T05:20:34.687Z,13.78
2022-11-15T05:23:01.287Z,13.79
2022-11-15T05:25:28.002Z,13.82
2022-11-15T05:27:54.540Z,13.83
2022-11-15T05:30:21.263Z,13.83
2022-11-15T05:32:48.484Z,13.85
2022-11-15T05:35:42.420Z,13.81
2022-11-15T05:38:09.534Z,13.87
2022-11-15T05:40:36.449Z,13.89
2022-11-15T05:43:05.587Z,13.90
2022-11-15T05:45:34.912Z,13.92
2022-11-15T05:48:04.992Z,13.94
2022-11-15T05:50:31.874Z,13.96
2022-11-15T05:53:04.642Z,13.97
2022-11-15T05:55:32.759Z,13.98
2022-11-15T05:57:59.307Z,14.00
2022-11-15T06:00:25.954Z,14.01
2022-11-15T06:02:52.439Z,14.03
2022-11-15T06:05:18.995Z,14.04
2022-11-15T06:07:45.671Z,14.04
2022-11-15T06:10:12.312Z,14.06
2022-11-15T06:12:38.757Z,14.09
2022-11-15T06:15:05.719Z,14.12
2022-11-15T06:17:32.204Z,14.13
2022-11-15T06:19:58.698Z,14.15
2022-11-15T06:22:25.194Z,14.18
2022-11-15T06:24:51.770Z,14.19
2022-11-15T06:27:18.335Z,14.22
2022-11-15T06:29:44.898Z,14.23
2022-11-15T06:32:11.483Z,14.25
2022-11-15T06:34:38.157Z,14.27
2022-11-15T06:37:04.731Z,14.30
2022-11-15T06:39:31.327Z,14.30
2022-11-15T06:41:57.875Z,14.32
2022-11-15T06:44:24.311Z,14.33
2022-11-15T06:46:50.832Z,14.35
2022-11-15T06:49:17.915Z,14.35
2022-11-15T06:51:44.408Z,14.37
2022-11-15T06:54:10.916Z,14.37
2022-11-15T06:56:37.465Z,14.38
2022-11-15T06:59:04.196Z,14.39
2022-11-15T07:01:30.843Z,14.39
2022-11-15T07:03:57.358Z,14.39
2022-11-15T07:06:23.858Z,14.40
2022-11-15T07:08:50.573Z,14.40
2022-11-15T07:11:17.086Z,14.40
2022-11-15T07:13:44.058Z,14.40
2022-11-15T07:16:11.426Z,14.41
2022-11-15T07:18:41.514Z,14.41
2022-11-15T07:21:11.112Z,14.44
2022-11-15T07:23:39.265Z,14.46
2022-11-15T07:26:06.361Z,14.49
2022-11-15T07:28:33.073Z,14.49
2022-11-15T07:31:03.634Z,14.50
2022-11-15T07:33:30.384Z,14.52
2022-11-15T07:36:02.480Z,14.52
2022-11-15T07:38:29.937Z,14.54
2022-11-15T07:41:00.744Z,14.55
2022-11-15T07:43:31.012Z,14.57
2022-11-15T07:45:59.613Z,14.58
2022-11-15T07:48:35.713Z,14.60
2022-11-15T07:51:15.622Z,14.60
2022-11-15T07:53:42.949Z,14.63
2022-11-15T07:56:09.991Z,14.69
2022-11-15T07:58:37.483Z,14.67
2022-11-15T08:01:08.769Z,14.66
2022-11-15T08:03:35.971Z,14.67
2022-11-15T08:06:03.531Z,14.66
2022-11-15T08:08:30.125Z,14.66
2022-11-15T08:10:59.076Z,14.65
2022-11-15T08:13:25.661Z,14.67
2022-11-15T08:15:56.429Z,14.67
2022-11-15T08:18:24.447Z,14.67
2022-11-15T08:20:50.976Z,14.67
2022-11-15T08:23:17.488Z,14.66
2022-11-15T08:25:44.589Z,14.66
2022-11-15T08:28:12.197Z,14.66
2022-11-15T08:30:42.683Z,14.65
2022-11-15T08:33:13.057Z,14.64
2022-11-15T08:35:41.165Z,14.66
2022-11-15T08:38:07.657Z,14.67
2022-11-15T08:40:34.220Z,14.67
2022-11-15T08:43:03.487Z,14.67
2022-11-15T08:45:31.285Z,14.66
2022-11-15T08:47:58.196Z,14.68
2022-11-15T08:50:24.725Z,14.69
2022-11-15T08:52:51.349Z,14.69
2022-11-15T08:55:18.063Z,14.70
2022-11-15T08:57:45.028Z,14.70
2022-11-15T09:00:13.190Z,14.72
2022-11-15T09:02:42.831Z,14.71
2022-11-15T09:05:09.607Z,14.73
2022-11-15T09:07:36.734Z,14.76
2022-11-15T09:10:04.252Z,14.76
2022-11-15T09:12:30.863Z,14.78
2022-11-15T09:14:57.472Z,14.79
2022-11-15T09:17:25.110Z,14.81
2022-11-15T09:19:52.106Z,14.83
2022-11-15T09:22:18.888Z,14.85
2022-11-15T09:24:45.827Z,14.88
2022-11-15T09:27:13.579Z,14.91
2022-11-15T09:29:40.473Z,14.94
2022-11-15T09:32:07.154Z,14.98
2022-11-15T09:34:33.733Z,15.00
2022-11-15T09:37:00.283Z,15.04
2022-11-15T09:39:26.821Z,15.09
2022-11-15T09:42:07.063Z,15.12
2022-11-15T09:44:49.482Z,15.15
2022-11-15T09:47:57.648Z,15.20
2022-11-15T09:50:37.710Z,15.30
2022-11-15T09:53:04.702Z,15.37
2022-11-15T09:55:49.295Z,15.39
2022-11-15T09:58:41.018Z,15.45
2022-11-15T10:01:18.506Z,15.53
2022-11-15T10:03:46.655Z,15.59
2022-11-15T10:06:44.215Z,15.55
2022-11-15T10:09:14.569Z,15.61
2022-11-15T10:11:42.506Z,15.65
2022-11-15T10:17:01.875Z,15.64
2022-11-15T10:19:43.778Z,15.66
2022-11-15T10:22:19.196Z,15.71
2022-11-15T10:24:47.052Z,15.72
2022-11-15T10:27:17.031Z,15.74
2022-11-15T10:29:46.261Z,15.75
2022-11-15T10:32:14.858Z,15.77
2022-11-15T10:34:42.167Z,15.78
2022-11-15T10:37:08.773Z,15.78
2022-11-15T10:39:35.395Z,15.77
2022-11-15T10:42:26.536Z,15.72
2022-11-15T10:44:53.214Z,15.76
2022-11-15T10:47:37.756Z,15.76
2022-11-15T10:50:26.724Z,15.81
2022-11-15T10:52:53.577Z,15.88
2022-11-15T10:55:27.450Z,15.93
2022-11-15T10:57:57.765Z,16.00
2022-11-15T11:00:34.209Z,16.09
2022-11-15T11:03:03.882Z,16.22
2022-11-15T11:05:40.920Z,16.35
2022-11-15T11:08:12.124Z,16.61
2022-11-15T11:11:00.134Z,16.98
2022-11-15T11:13:29.243Z,17.47
2022-11-15T11:16:14.438Z,17.95
2022-11-15T11:18:53.073Z,18.40
2022-11-15T11:21:32.972Z,18.70
2022-11-15T11:24:27.877Z,18.92
2022-11-15T11:27:13.093Z,19.18
2022-11-15T11:29:39.622Z,19.38
2022-11-15T11:32:08.786Z,19.50
2022-11-15T11:34:58.914Z,19.49
2022-11-15T11:37:36.316Z,19.56
2022-11-15T11:40:10.944Z,19.77
2022-11-15T11:43:02.645Z,20.07
2022-11-15T11:45:46.149Z,20.48
2022-11-15T11:48:19.389Z,20.86
2022-11-15T11:50:47.042Z,21.23
2022-11-15T11:53:18.207Z,21.56
2022-11-15T11:55:54.451Z,21.84
2022-11-15T11:58:35.130Z,22.02
2022-11-15T12:01:25.496Z,22.05
2022-11-15T12:03:58.040Z,21.96
2022-11-15T12:06:43.644Z,21.72
2022-11-15T12:09:39.245Z,21.48
2022-11-15T12:12:19.438Z,21.32
2022-11-15T12:14:54.980Z,21.21
2022-11-15T12:17:28.121Z,21.11
2022-11-15T12:19:58.984Z,21.13
2022-11-15T12:22:29.852Z,21.30
2022-11-15T12:25:05.613Z,21.56
2022-11-15T12:27:42.097Z,21.85
2022-11-15T12:30:20.949Z,22.04
2022-11-15T12:32:55.752Z,22.14
2022-11-15T12:35:43.736Z,22.11
2022-11-15T12:38:34.188Z,22.06
2022-11-15T12:41:20.630Z,21.84
2022-11-15T12:43:49.227Z,21.66
2022-11-15T12:46:30.780Z,21.28
2022-11-15T12:49:10.691Z,20.93
2022-11-15T12:51:43.049Z,20.54
2022-11-15T12:54:24.643Z,20.13
2022-11-15T12:57:20.524Z,19.76
2022-11-15T12:59:54.182Z,19.53
2022-11-15T13:02:41.459Z,19.26
2022-11-15T13:05:20.424Z,19.11
2022-11-15T13:07:49.628Z,19.01
2022-11-15T13:10:31.184Z,18.85
2022-11-15T13:13:00.281Z,18.81
2022-11-15T13:15:59.793Z,18.67
2022-11-15T13:18:35.746Z,18.62
2022-11-15T13:21:23.930Z,18.61
2022-11-15T13:23:56.865Z,18.58
2022-11-15T13:26:23.903Z,18.66
2022-11-15T13:28:54.299Z,18.73
2022-11-15T13:31:38.743Z,18.87
2022-11-15T13:37:20.740Z,19.21
2022-11-15T13:39:48.189Z,19.31
2022-11-15T13:42:20.025Z,19.42
2022-11-15T13:45:01.805Z,19.60
2022-11-15T13:47:30.079Z,19.86
2022-11-15T13:50:02.072Z,20.11
2022-11-15T13:52:34.935Z,20.41
2022-11-15T13:55:04.685Z,20.70
2022-11-15T13:57:40.498Z,20.95
2022-11-15T14:00:23.604Z,21.19
2022-11-15T14:02:50.091Z,21.38
2022-11-15T14:05:20.165Z,21.59
2022-11-15T14:07:59.083Z,21.65
2022-11-15T14:10:37.439Z,21.67
2022-11-15T14:13:11.364Z,21.67
2022-11-15T14:15:39.593Z,21.58
2022-11-15T14:18:07.307Z,21.44
2022-11-15T14:20:37.093Z,21.28
2022-11-15T14:23:06.362Z,21.07
2022-11-15T14:25:36.446Z,20.88
2022-11-15T14:28:08.866Z,20.61
2022-11-15T14:30:35.387Z,20.40
2022-11-15T14:33:01.962Z,20.17
2022-11-15T14:35:28.504Z,19.92
2022-11-15T14:37:55.031Z,19.72
2022-11-15T14:40:23.137Z,19.50
2022-11-15T14:42:50.696Z,19.32
2022-11-15T14:45:22.419Z,19.09
2022-11-15T14:47:49.479Z,18.92
2022-11-15T14:50:19.335Z,18.72
2022-11-15T14:52:46.228Z,18.56
2022-11-15T14:55:28.635Z,18.33
2022-11-15T14:57:56.172Z,18.22
2022-11-15T15:00:23.656Z,18.06
2022-11-15T15:02:52.855Z,17.91
2022-11-15T15:05:22.463Z,17.77
2022-11-15T15:07:49.331Z,17.63
2022-11-15T15:10:39.066Z,17.49
2022-11-15T15:13:06.139Z,17.35
2022-11-15T15:15:35.579Z,17.22
2022-11-15T15:18:03.494Z,17.10
2022-11-15T15:20:30.536Z,16.97
2022-11-15T15:22:57.070Z,16.86
2022-11-15T15:25:31.332Z,16.73
2022-11-15T15:27:57.826Z,16.62
2022-11-15T15:30:25.086Z,16.51
2022-11-15T15:32:51.735Z,16.40
2022-11-15T15:35:19.403Z,16.28
2022-11-15T15:37:47.489Z,16.20
2022-11-15T15:40:20.763Z,16.08
2022-11-15T15:42:48.505Z,15.98
2022-11-15T15:45:16.183Z,15.88
2022-11-15T15:47:43.276Z,15.79
2022-11-15T15:50:33.872Z,15.65
2022-11-15T15:53:04.148Z,15.60
2022-11-15T15:55:31.600Z,15.54
2022-11-15T15:57:58.539Z,15.47
2022-11-15T16:00:26.378Z,15.39
2022-11-15T16:02:53.780Z,15.34
2022-11-15T16:05:20.578Z,15.29
2022-11-15T16:07:48.272Z,15.24
2022-11-15T16:10:25.738Z,15.16
2022-11-15T16:12:53.503Z,15.15
2022-11-15T16:18:59.372Z,15.06
2022-11-15T16:21:25.940Z,15.01
2022-11-15T16:23:53.024Z,14.97
2022-11-15T16:26:28.419Z,14.90
2022-11-15T16:28:55.198Z,14.91
2022-11-15T16:31:24.547Z,14.91
2022-11-15T16:33:51.145Z,14.88
2022-11-15T16:36:29.444Z,14.85
2022-11-15T16:38:57.722Z,14.86
2022-11-15T16:41:24.333Z,14.84
2022-11-15T16:43:51.268Z,14.83
2022-11-15T16:46:22.850Z,14.78
2022-11-15T16:48:50.114Z,14.78
2022-11-15T16:51:17.090Z,14.73
2022-11-15T16:53:44.676Z,14.71
2022-11-15T16:56:30.595Z,14.63
2022-11-15T16:58:58.965Z,14.66
2022-11-15T17:01:36.550Z,14.63
2022-11-15T17:04:13.166Z,14.59
2022-11-15T17:06:41.264Z,14.56
2022-11-15T17:09:12.993Z,14.52
2022-11-15T17:11:41.007Z,14.50
2022-11-15T17:14:14.297Z,14.48
2022-11-15T17:16:42.648Z,14.45
2022-11-15T17:19:14.422Z,14.40
2022-11-15T17:21:43.603Z,14.40
2022-11-15T17:24:10.811Z,14.39
2022-11-15T17:26:40.796Z,14.36
2022-11-15T17:29:10.418Z,14.36
2022-11-15T17:31:37.828Z,14.34
2022-11-15T17:34:05.728Z,14.33
2022-11-15T17:36:32.507Z,14.34
2022-11-15T17:38:59.974Z,14.32
2022-11-15T17:41:28.078Z,14.31
2022-11-15T17:43:57.961Z,14.29
2022-11-15T17:46:24.802Z,14.29
2022-11-15T17:48:51.408Z,14.26
2022-11-15T17:51:18.865Z,14.27
2022-11-15T17:53:47.272Z,14.25
2022-11-15T17:56:16.281Z,14.27
2022-11-15T17:58:51.073Z,14.26
2022-11-15T18:01:30.944Z,14.25
2022-11-15T18:04:00.728Z,14.28
2022-11-15T18:06:30.454Z,14.29
2022-11-15T18:08:57.489Z,14.30
2022-11-15T18:11:33.109Z,14.31
2022-11-15T18:14:02.662Z,14.33
2022-11-15T18:16:31.078Z,14.36
2022-11-15T18:18:58.644Z,14.36
2022-11-15T18:21:31.798Z,14.38
2022-11-15T18:23:59.642Z,14.41
2022-11-15T18:26:28.898Z,14.48
2022-11-15T18:29:04.290Z,14.44
2022-11-15T18:31:31.649Z,14.50
2022-11-15T18:34:01.381Z,14.50
2022-11-15T18:36:30.306Z,14.53
2022-11-15T18:38:59.501Z,14.55
2022-11-15T18:41:29.764Z,14.58
2022-11-15T18:43:58.365Z,14.61
2022-11-15T18:46:28.577Z,14.66
2022-11-15T18:48:56.103Z,14.70
2022-11-15T18:51:26.203Z,14.72
2022-11-15T18:53:54.370Z,14.77
2022-11-15T18:56:22.494Z,14.80
2022-11-15T18:58:52.154Z,14.83
2022-11-15T19:01:21.157Z,14.87
2022-11-15T19:03:50.035Z,14.91
2022-11-15T19:06:22.313Z,14.93
2022-11-15T19:08:53.078Z,14.96
2022-11-15T19:11:28.001Z,14.98
2022-11-15T19:13:56.773Z,15.02
2022-11-15T19:16:24.442Z,15.04
2022-11-15T19:18:56.162Z,15.04
2022-11-15T19:21:24.286Z,15.08
2022-11-15T19:23:52.998Z,15.11
2022-11-15T19:26:21.691Z,15.12
2022-11-15T19:28:55.876Z,15.14
2022-11-15T19:31:23.751Z,15.17
2022-11-15T19:33:51.595Z,15.21
2022-11-15T19:36:32.514Z,15.17
2022-11-15T19:39:00.802Z,15.22
2022-11-15T19:41:27.356Z,15.23
2022-11-15T19:43:53.997Z,15.23
2022-11-15T19:46:23.496Z,15.24
2022-11-15T19:48:51.147Z,15.26
2022-11-15T19:51:21.570Z,15.26
2022-11-15T19:53:49.541Z,15.28
2022-11-15T19:56:18.285Z,15.27
2022-11-15T19:58:45.640Z,15.28
2022-11-15T20:01:19.629Z,15.30
2022-11-15T20:03:47.225Z,15.32
2022-11-15T20:06:16.792Z,15.31
2022-11-15T20:08:44.469Z,15.33
2022-11-15T20:11:12.380Z,15.34
2022-11-15T20:13:39.820Z,15.35
2022-11-15T20:16:06.711Z,15.35
2022-11-15T20:18:34.636Z,15.36
2022-11-15T20:21:02.735Z,15.38
2022-11-15T20:23:29.311Z,15.37
2022-11-15T20:25:55.918Z,15.38
2022-11-15T20:28:27.433Z,15.38
2022-11-15T20:30:59.694Z,15.38
2022-11-15T20:33:27.322Z,15.41
2022-11-15T20:35:54.401Z,15.42
2022-11-15T20:38:21.926Z,15.43
2022-11-15T20:40:50.104Z,15.43
2022-11-15T20:43:19.206Z,15.42
2022-11-15T20:45:47.712Z,15.43
2022-11-15T20:48:16.010Z,15.45
2022-11-15T20:50:43.951Z,15.43
2022-11-15T20:53:13.029Z,15.44
2022-11-15T20:55:52.286Z,15.42
2022-11-15T20:58:18.786Z,15.45
2022-11-15T21:00:45.717Z,15.46
2022-11-15T21:03:14.221Z,15.46
2022-11-15T21:05:43.162Z,15.46
2022-11-15T21:08:11.254Z,15.47
2022-11-15T21:10:56.589Z,15.47
2022-11-15T21:13:23.097Z,15.49
2022-11-15T21:15:49.787Z,15.48
2022-11-15T21:18:16.506Z,15.49
2022-11-15T21:20:43.294Z,15.49
2022-11-15T21:23:10.085Z,15.50
2022-11-15T21:25:36.575Z,15.50
2022-11-15T21:28:03.252Z,15.50
2022-11-15T21:30:30.451Z,15.52
2022-11-15T21:32:57.148Z,15.51
2022-11-15T21:35:24.183Z,15.52
2022-11-15T21:37:56.452Z,15.48
2022-11-15T21:40:24.418Z,15.48
2022-11-15T21:42:51.208Z,15.48
2022-11-15T21:45:17.875Z,15.45
2022-11-15T21:47:46.269Z,15.44
2022-11-15T21:50:13.836Z,15.40
2022-11-15T21:52:40.878Z,15.40
2022-11-15T21:55:08.162Z,15.38
2022-11-15T21:57:34.742Z,15.37
2022-11-15T22:00:20.163Z,15.36
2022-11-15T22:02:46.736Z,15.37
2022-11-15T22:05:13.579Z,15.36
2022-11-15T22:07:40.198Z,15.36
2022-11-15T22:10:07.014Z,15.35
2022-11-15T22:12:33.612Z,15.36
2022-11-15T22:15:00.243Z,15.35
